Terminal Aerodrome Forecast
Issued by NWS

Home | Current Version | Previous Version | Text Only | Print | Product List | Glossary On
Versions: 1 2 3 4 5 6 7 8 9 10 11 12 13
000
FTUS42 TJSJ 301120
TAFIST
TAF
TIST 301120Z 3012/3112 VRB06KT P6SM SCT025 BKN100
     FM301330 13012KT P6SM VCSH SCT025 BKN050
     FM302300 09008KT P6SM VCSH SCT025 BKN070=

USA.gov is the U.S. government's official web portal to all federal, state and local government web resources and services.